Kingsville, Missouri
Current Conditions -  °F | °C
As of 10:35 AM on Friday 31 Oct 2014 (Local Time) from KRCM Reporting Station
Clear Clear  
Wind Chill: 33°   Ceiling: Unl
Heat Index: 41°   Visibility: 10mi
Dew Point: 19°   Wind: 15mph
Humidity: 42%   Direction: 340°NNW
Pressure: 30.46"   Gusts: 22mph
Location:  38.74°N, 94.07°W
Report Text: KRCM 311535Z AUTO 34013G19KT 10SM CLR 05/M07 A3046 RMK AO2
Loading
Personal Weather Stations






























Interactive Weather Map New forecast layout! Learn more

10-Day Weather Forecast

Advertisements
Track Severe Weather on mobile